Fort Chipewyan, Canada
Current Conditions -  °F | °C
As of 4:17 AM on Sunday 23 Nov 2014 (Local Time) from CYPY Reporting Station
Light Snow Light Snow  
Wind Chill:   Ceiling: 4800
Heat Index:   Visibility: 6mi
Dew Point:   Wind: 3mph
Humidity: 85%   Direction: 60°ENE
Pressure: 29.85"   Gusts: NA
Location:  58.71°N, 111.15°W
Report Text: CYPY 231117Z AUTO 06003KT 6SM -SN OVC048 M16/M18 A2985 RMK SLP132
Loading
Personal Weather Stations






























Interactive Weather Map New forecast layout! Learn more

10-Day Weather Forecast

Advertisements
Track Severe Weather on mobile